sensor_id;sensor_type;location;lat;lon;timestamp;pressure;altitude;pressure_sealevel;temperature;humidity
57644;BME280;43474;46.510;6.686;2023-05-12T00:01:43;96122.00;;;10.31;100.00
57644;BME280;43474;46.510;6.686;2023-05-12T00:04:09;96118.22;;;10.27;100.00
57644;BME280;43474;46.510;6.686;2023-05-12T00:06:34;96128.09;;;10.31;100.00
57644;BME280;43474;46.510;6.686;2023-05-12T00:09:00;96110.41;;;10.20;100.00
57644;BME280;43474;46.510;6.686;2023-05-12T00:11:26;96129.44;;;10.34;100.00
57644;BME280;43474;46.510;6.686;2023-05-12T00:13:53;96115.91;;;10.30;100.00
57644;BME280;43474;46.510;6.686;2023-05-12T00:16:19;96099.03;;;10.20;100.00
57644;BME280;43474;46.510;6.686;2023-05-12T00:18:44;96125.09;;;10.28;100.00
57644;BME280;43474;46.510;6.686;2023-05-12T00:21:10;96118.53;;;10.30;100.00
57644;BME280;43474;46.510;6.686;2023-05-12T00:23:36;96111.56;;;10.24;100.00
57644;BME280;43474;46.510;6.686;2023-05-12T00:26:03;96108.16;;;10.29;100.00
57644;BME280;43474;46.510;6.686;2023-05-12T00:28:28;96105.91;;;10.21;100.00
57644;BME280;43474;46.510;6.686;2023-05-12T00:30:55;96091.53;;;10.17;100.00
57644;BME280;43474;46.510;6.686;2023-05-12T00:33:21;96098.19;;;10.19;100.00
57644;BME280;43474;46.510;6.686;2023-05-12T00:35:46;96101.88;;;10.18;100.00
57644;BME280;43474;46.510;6.686;2023-05-12T00:38:12;96090.41;;;10.13;100.00
57644;BME280;43474;46.510;6.686;2023-05-12T00:40:38;96090.03;;;10.21;100.00
57644;BME280;43474;46.510;6.686;2023-05-12T00:43:04;96088.72;;;10.23;100.00
57644;BME280;43474;46.510;6.686;2023-05-12T00:45:30;96098.78;;;10.38;100.00
57644;BME280;43474;46.510;6.686;2023-05-12T00:47:55;96083.94;;;10.20;100.00
57644;BME280;43474;46.510;6.686;2023-05-12T00:50:21;96097.56;;;10.29;100.00
57644;BME280;43474;46.510;6.686;2023-05-12T00:52:48;96087.44;;;10.09;100.00
57644;BME280;43474;46.510;6.686;2023-05-12T00:55:14;96091.34;;;10.35;100.00
57644;BME280;43474;46.510;6.686;2023-05-12T00:57:41;96081.47;;;10.30;100.00
57644;BME280;43474;46.510;6.686;2023-05-12T01:00:07;96079.44;;;10.21;100.00
57644;BME280;43474;46.510;6.686;2023-05-12T01:02:33;96094.84;;;10.24;100.00
57644;BME280;43474;46.510;6.686;2023-05-12T01:04:59;96094.28;;;10.22;100.00
57644;BME280;43474;46.510;6.686;2023-05-12T01:07:25;96091.38;;;10.23;100.00
57644;BME280;43474;46.510;6.686;2023-05-12T01:09:55;96094.03;;;10.23;100.00
57644;BME280;43474;46.510;6.686;2023-05-12T01:12:21;96086.97;;;10.12;100.00
57644;BME280;43474;46.510;6.686;2023-05-12T01:14:48;96088.66;;;10.18;100.00
57644;BME280;43474;46.510;6.686;2023-05-12T01:17:18;96078.78;;;10.14;100.00
57644;BME280;43474;46.510;6.686;2023-05-12T01:19:49;96070.47;;;10.05;100.00
57644;BME280;43474;46.510;6.686;2023-05-12T01:22:17;96082.81;;;10.16;100.00
57644;BME280;43474;46.510;6.686;2023-05-12T01:24:54;96086.66;;;10.08;100.00
57644;BME280;43474;46.510;6.686;2023-05-12T01:27:22;96081.75;;;10.17;100.00
57644;BME280;43474;46.510;6.686;2023-05-12T01:29:50;96079.03;;;10.29;100.00
57644;BME280;43474;46.510;6.686;2023-05-12T01:32:18;96062.59;;;10.10;100.00
57644;BME280;43474;46.510;6.686;2023-05-12T01:34:44;96064.59;;;10.20;100.00
57644;BME280;43474;46.510;6.686;2023-05-12T01:37:10;96077.69;;;10.26;100.00
57644;BME280;43474;46.510;6.686;2023-05-12T01:39:36;96077.25;;;10.18;100.00
57644;BME280;43474;46.510;6.686;2023-05-12T01:42:03;96083.78;;;10.27;100.00
57644;BME280;43474;46.510;6.686;2023-05-12T01:44:30;96089.78;;;10.22;100.00
57644;BME280;43474;46.510;6.686;2023-05-12T01:46:55;96070.69;;;10.03;100.00
57644;BME280;43474;46.510;6.686;2023-05-12T01:49:21;96074.47;;;10.07;100.00
57644;BME280;43474;46.510;6.686;2023-05-12T01:51:46;96073.91;;;10.05;100.00
57644;BME280;43474;46.510;6.686;2023-05-12T01:54:12;96080.06;;;10.11;100.00
57644;BME280;43474;46.510;6.686;2023-05-12T01:56:38;96082.00;;;10.16;100.00
57644;BME280;43474;46.510;6.686;2023-05-12T01:59:04;96074.72;;;10.06;100.00
57644;BME280;43474;46.510;6.686;2023-05-12T02:01:29;96080.63;;;9.96;100.00
57644;BME280;43474;46.510;6.686;2023-05-12T02:03:57;96081.44;;;9.97;100.00
57644;BME280;43474;46.510;6.686;2023-05-12T02:06:23;96070.38;;;10.00;100.00
57644;BME280;43474;46.510;6.686;2023-05-12T02:08:49;96063.88;;;10.07;100.00
57644;BME280;43474;46.510;6.686;2023-05-12T02:11:15;96075.91;;;9.98;100.00
57644;BME280;43474;46.510;6.686;2023-05-12T02:13:41;96081.59;;;10.07;100.00
57644;BME280;43474;46.510;6.686;2023-05-12T02:16:09;96083.44;;;10.06;100.00
57644;BME280;43474;46.510;6.686;2023-05-12T02:18:35;96072.69;;;10.13;100.00
57644;BME280;43474;46.510;6.686;2023-05-12T02:21:01;96074.97;;;10.04;100.00
57644;BME280;43474;46.510;6.686;2023-05-12T02:23:26;96070.75;;;10.08;100.00
57644;BME280;43474;46.510;6.686;2023-05-12T02:25:52;96070.47;;;10.05;100.00
57644;BME280;43474;46.510;6.686;2023-05-12T02:28:18;96078.78;;;10.14;100.00
57644;BME280;43474;46.510;6.686;2023-05-12T02:30:47;96068.84;;;10.04;100.00
57644;BME280;43474;46.510;6.686;2023-05-12T02:33:17;96073.81;;;10.00;100.00
57644;BME280;43474;46.510;6.686;2023-05-12T02:35:43;96074.75;;;9.94;100.00
57644;BME280;43474;46.510;6.686;2023-05-12T02:38:09;96061.13;;;10.02;100.00
57644;BME280;43474;46.510;6.686;2023-05-12T02:40:35;96079.56;;;10.14;100.00
57644;BME280;43474;46.510;6.686;2023-05-12T02:43:00;96079.50;;;10.09;100.00
57644;BME280;43474;46.510;6.686;2023-05-12T02:45:26;96074.97;;;10.04;100.00
57644;BME280;43474;46.510;6.686;2023-05-12T02:47:52;96073.25;;;9.98;100.00
57644;BME280;43474;46.510;6.686;2023-05-12T02:50:17;96073.72;;;10.12;100.00
57644;BME280;43474;46.510;6.686;2023-05-12T02:52:45;96068.84;;;10.04;100.00
57644;BME280;43474;46.510;6.686;2023-05-12T02:55:10;96067.47;;;10.01;100.00
57644;BME280;43474;46.510;6.686;2023-05-12T02:57:36;96075.50;;;10.06;100.00
57644;BME280;43474;46.510;6.686;2023-05-12T03:00:03;96067.09;;;10.09;100.00
57644;BME280;43474;46.510;6.686;2023-05-12T03:02:32;96059.06;;;10.04;100.00
57644;BME280;43474;46.510;6.686;2023-05-12T03:04:58;96059.53;;;10.01;100.00
57644;BME280;43474;46.510;6.686;2023-05-12T03:07:23;96048.28;;;9.94;100.00
57644;BME280;43474;46.510;6.686;2023-05-12T03:09:49;96052.00;;;9.93;100.00
57644;BME280;43474;46.510;6.686;2023-05-12T03:12:15;96055.53;;;9.82;100.00
57644;BME280;43474;46.510;6.686;2023-05-12T03:14:40;96043.81;;;9.78;100.00
57644;BME280;43474;46.510;6.686;2023-05-12T03:17:06;96040.63;;;9.76;100.00
57644;BME280;43474;46.510;6.686;2023-05-12T03:19:31;96048.22;;;9.72;100.00
57644;BME280;43474;46.510;6.686;2023-05-12T03:21:57;96050.56;;;9.86;100.00
57644;BME280;43474;46.510;6.686;2023-05-12T03:24:23;96047.50;;;9.94;100.00
57644;BME280;43474;46.510;6.686;2023-05-12T03:26:48;96046.69;;;9.93;100.00
57644;BME280;43474;46.510;6.686;2023-05-12T03:29:14;96045.19;;;9.97;100.00
57644;BME280;43474;46.510;6.686;2023-05-12T03:31:39;96038.84;;;9.98;100.00
57644;BME280;43474;46.510;6.686;2023-05-12T03:34:05;96038.22;;;9.91;100.00
57644;BME280;43474;46.510;6.686;2023-05-12T03:36:31;96052.88;;;9.99;100.00
57644;BME280;43474;46.510;6.686;2023-05-12T03:38:56;96055.44;;;9.94;100.00
57644;BME280;43474;46.510;6.686;2023-05-12T03:41:22;96035.22;;;9.88;100.00
57644;BME280;43474;46.510;6.686;2023-05-12T03:43:48;96049.53;;;9.87;100.00
57644;BME280;43474;46.510;6.686;2023-05-12T03:46:14;96038.53;;;9.95;100.00
57644;BME280;43474;46.510;6.686;2023-05-12T03:48:39;96026.97;;;9.84;100.00
57644;BME280;43474;46.510;6.686;2023-05-12T03:51:05;96036.03;;;9.88;100.00
57644;BME280;43474;46.510;6.686;2023-05-12T03:53:30;96041.25;;;10.00;100.00
57644;BME280;43474;46.510;6.686;2023-05-12T03:55:56;96043.34;;;9.98;100.00
57644;BME280;43474;46.510;6.686;2023-05-12T03:58:22;96053.38;;;9.96;100.00
57644;BME280;43474;46.510;6.686;2023-05-12T04:00:49;96037.09;;;9.87;100.00
57644;BME280;43474;46.510;6.686;2023-05-12T04:03:18;96036.44;;;9.97;100.00
57644;BME280;43474;46.510;6.686;2023-05-12T04:05:43;96041.41;;;10.10;100.00
57644;BME280;43474;46.510;6.686;2023-05-12T04:08:09;96029.56;;;9.96;100.00
57644;BME280;43474;46.510;6.686;2023-05-12T04:10:41;96048.16;;;10.01;100.00
57644;BME280;43474;46.510;6.686;2023-05-12T04:13:09;96029.78;;;9.94;100.00
57644;BME280;43474;46.510;6.686;2023-05-12T04:15:35;96043.25;;;10.09;100.00
57644;BME280;43474;46.510;6.686;2023-05-12T04:18:02;96047.72;;;10.09;100.00
57644;BME280;43474;46.510;6.686;2023-05-12T04:20:27;96043.19;;;10.04;100.00
57644;BME280;43474;46.510;6.686;2023-05-12T04:22:53;96048.97;;;10.01;100.00
57644;BME280;43474;46.510;6.686;2023-05-12T04:25:19;96043.59;;;9.96;100.00
57644;BME280;43474;46.510;6.686;2023-05-12T04:27:44;96038.22;;;9.91;100.00
57644;BME280;43474;46.510;6.686;2023-05-12T04:30:10;96040.84;;;9.91;100.00
57644;BME280;43474;46.510;6.686;2023-05-12T04:32:36;96040.75;;;10.03;100.00
57644;BME280;43474;46.510;6.686;2023-05-12T04:35:01;96036.19;;;9.98;100.00
57644;BME280;43474;46.510;6.686;2023-05-12T04:37:27;96040.13;;;9.96;100.00
57644;BME280;43474;46.510;6.686;2023-05-12T04:39:52;96036.28;;;9.87;100.00
57644;BME280;43474;46.510;6.686;2023-05-12T04:42:18;96045.44;;;9.96;100.00
57644;BME280;43474;46.510;6.686;2023-05-12T04:44:44;96049.13;;;9.95;100.00
57644;BME280;43474;46.510;6.686;2023-05-12T04:47:12;96050.00;;;10.00;100.00
57644;BME280;43474;46.510;6.686;2023-05-12T04:49:37;96046.78;;;9.98;100.00
57644;BME280;43474;46.510;6.686;2023-05-12T04:52:03;96052.41;;;10.02;100.00
57644;BME280;43474;46.510;6.686;2023-05-12T04:54:30;96040.69;;;9.98;100.00
57644;BME280;43474;46.510;6.686;2023-05-12T04:56:56;96043.34;;;9.98;100.00
57644;BME280;43474;46.510;6.686;2023-05-12T04:59:22;96042.28;;;9.99;100.00
57644;BME280;43474;46.510;6.686;2023-05-12T05:01:48;96056.97;;;10.06;100.00
57644;BME280;43474;46.510;6.686;2023-05-12T05:04:14;96050.31;;;10.04;100.00
57644;BME280;43474;46.510;6.686;2023-05-12T05:06:40;96059.22;;;10.15;100.00
57644;BME280;43474;46.510;6.686;2023-05-12T05:09:05;96041.63;;;10.08;100.00
57644;BME280;43474;46.510;6.686;2023-05-12T05:11:31;96037.72;;;9.94;100.00
57644;BME280;43474;46.510;6.686;2023-05-12T05:13:57;96054.47;;;10.17;100.00
57644;BME280;43474;46.510;6.686;2023-05-12T05:16:23;96047.97;;;10.07;100.00
57644;BME280;43474;46.510;6.686;2023-05-12T05:18:48;96057.91;;;10.17;100.00
57644;BME280;43474;46.510;6.686;2023-05-12T05:21:14;96046.53;;;10.17;100.00
57644;BME280;43474;46.510;6.686;2023-05-12T05:23:40;96045.38;;;10.24;100.00
57644;BME280;43474;46.510;6.686;2023-05-12T05:26:07;96048.94;;;10.35;100.00
57644;BME280;43474;46.510;6.686;2023-05-12T05:28:33;96051.47;;;10.47;100.00
57644;BME280;43474;46.510;6.686;2023-05-12T05:30:58;96053.78;;;10.60;100.00
57644;BME280;43474;46.510;6.686;2023-05-12T05:33:24;96051.69;;;10.62;100.00
57644;BME280;43474;46.510;6.686;2023-05-12T05:35:49;96060.09;;;10.76;100.00
57644;BME280;43474;46.510;6.686;2023-05-12T05:38:15;96054.47;;;10.72;100.00
57644;BME280;43474;46.510;6.686;2023-05-12T05:40:41;96067.09;;;10.87;100.00
57644;BME280;43474;46.510;6.686;2023-05-12T05:43:06;96055.22;;;10.90;100.00
57644;BME280;43474;46.510;6.686;2023-05-12T05:45:32;96066.31;;;10.86;100.00
57644;BME280;43474;46.510;6.686;2023-05-12T05:47:58;96057.06;;;10.89;100.00
57644;BME280;43474;46.510;6.686;2023-05-12T05:50:23;96059.00;;;10.99;100.00
57644;BME280;43474;46.510;6.686;2023-05-12T05:52:49;96058.47;;;10.97;100.00
57644;BME280;43474;46.510;6.686;2023-05-12T05:55:14;96057.53;;;11.08;100.00
57644;BME280;43474;46.510;6.686;2023-05-12T05:57:40;96073.56;;;11.18;100.00
57644;BME280;43474;46.510;6.686;2023-05-12T06:00:06;96060.97;;;11.08;100.00
57644;BME280;43474;46.510;6.686;2023-05-12T06:02:34;96065.06;;;11.16;100.00
57644;BME280;43474;46.510;6.686;2023-05-12T06:05:00;96060.75;;;11.10;100.00
57644;BME280;43474;46.510;6.686;2023-05-12T06:07:26;96064.56;;;11.19;100.00
57644;BME280;43474;46.510;6.686;2023-05-12T06:09:53;96056.25;;;11.10;100.00
57644;BME280;43474;46.510;6.686;2023-05-12T06:12:18;96055.50;;;11.15;100.00
57644;BME280;43474;46.510;6.686;2023-05-12T06:14:44;96064.25;;;11.16;100.00
57644;BME280;43474;46.510;6.686;2023-05-12T06:17:09;96062.41;;;11.16;100.00
57644;BME280;43474;46.510;6.686;2023-05-12T06:19:35;96059.31;;;11.24;100.00
57644;BME280;43474;46.510;6.686;2023-05-12T06:22:01;96063.88;;;11.29;100.00
57644;BME280;43474;46.510;6.686;2023-05-12T06:24:26;96058.56;;;11.29;100.00
57644;BME280;43474;46.510;6.686;2023-05-12T06:26:52;96069.03;;;11.41;100.00
57644;BME280;43474;46.510;6.686;2023-05-12T06:29:18;96069.34;;;11.44;100.00
57644;BME280;43474;46.510;6.686;2023-05-12T06:31:45;96050.19;;;11.42;100.00
57644;BME280;43474;46.510;6.686;2023-05-12T06:34:11;96063.56;;;11.52;100.00
57644;BME280;43474;46.510;6.686;2023-05-12T06:36:37;96064.22;;;11.64;100.00
57644;BME280;43474;46.510;6.686;2023-05-12T06:39:03;96048.78;;;11.61;100.00
57644;BME280;43474;46.510;6.686;2023-05-12T06:41:29;96073.38;;;11.79;100.00
57644;BME280;43474;46.510;6.686;2023-05-12T06:43:54;96074.78;;;11.86;100.00
57644;BME280;43474;46.510;6.686;2023-05-12T06:46:20;96076.13;;;11.84;100.00
57644;BME280;43474;46.510;6.686;2023-05-12T06:48:46;96073.03;;;11.97;100.00
57644;BME280;43474;46.510;6.686;2023-05-12T06:51:12;96082.84;;;12.29;100.00
57644;BME280;43474;46.510;6.686;2023-05-12T06:53:39;96081.88;;;12.45;100.00
57644;BME280;43474;46.510;6.686;2023-05-12T06:56:06;96084.38;;;12.67;100.00
57644;BME280;43474;46.510;6.686;2023-05-12T06:58:32;96079.16;;;12.82;100.00
57644;BME280;43474;46.510;6.686;2023-05-12T07:00:57;96093.38;;;13.08;100.00
57644;BME280;43474;46.510;6.686;2023-05-12T07:03:23;96083.00;;;13.12;100.00
57644;BME280;43474;46.510;6.686;2023-05-12T07:05:48;96092.84;;;13.16;100.00
57644;BME280;43474;46.510;6.686;2023-05-12T07:08:14;96073.28;;;13.33;100.00
57644;BME280;43474;46.510;6.686;2023-05-12T07:10:40;96079.44;;;13.59;100.00
57644;BME280;43474;46.510;6.686;2023-05-12T07:13:06;96074.16;;;14.15;100.00
57644;BME280;43474;46.510;6.686;2023-05-12T07:15:31;96065.38;;;16.72;100.00
57644;BME280;43474;46.510;6.686;2023-05-12T07:17:57;96080.03;;;17.84;91.45
57644;BME280;43474;46.510;6.686;2023-05-12T07:20:22;96082.81;;;18.30;88.04
57644;BME280;43474;46.510;6.686;2023-05-12T07:22:48;96075.50;;;20.10;81.77
57644;BME280;43474;46.510;6.686;2023-05-12T07:25:15;96080.84;;;21.26;66.09
57644;BME280;43474;46.510;6.686;2023-05-12T07:27:41;96064.69;;;19.37;79.03
57644;BME280;43474;46.510;6.686;2023-05-12T07:30:08;96078.09;;;20.24;74.02
57644;BME280;43474;46.510;6.686;2023-05-12T07:32:34;96076.34;;;17.80;80.00
57644;BME280;43474;46.510;6.686;2023-05-12T07:35:01;96070.84;;;17.28;82.51
57644;BME280;43474;46.510;6.686;2023-05-12T07:37:28;96056.47;;;17.00;88.69
57644;BME280;43474;46.510;6.686;2023-05-12T07:39:53;96070.59;;;17.06;88.26
57644;BME280;43474;46.510;6.686;2023-05-12T07:42:19;96073.03;;;16.78;87.28
57644;BME280;43474;46.510;6.686;2023-05-12T07:44:47;96071.31;;;16.35;89.28
57644;BME280;43474;46.510;6.686;2023-05-12T07:47:13;96062.66;;;15.80;89.23
57644;BME280;43474;46.510;6.686;2023-05-12T07:49:38;96064.84;;;15.23;96.38
57644;BME280;43474;46.510;6.686;2023-05-12T07:52:04;96060.72;;;14.86;97.69
57644;BME280;43474;46.510;6.686;2023-05-12T07:54:30;96059.13;;;14.85;98.48
57644;BME280;43474;46.510;6.686;2023-05-12T07:56:56;96057.31;;;15.30;100.00
57644;BME280;43474;46.510;6.686;2023-05-12T07:59:22;96055.41;;;15.36;94.67
57644;BME280;43474;46.510;6.686;2023-05-12T08:01:48;96051.59;;;15.03;95.73
57644;BME280;43474;46.510;6.686;2023-05-12T08:04:13;96049.09;;;15.21;100.00
57644;BME280;43474;46.510;6.686;2023-05-12T08:06:39;96053.03;;;17.19;92.98
57644;BME280;43474;46.510;6.686;2023-05-12T08:09:04;96068.53;;;18.95;90.01
57644;BME280;43474;46.510;6.686;2023-05-12T08:11:31;96051.53;;;19.63;81.15
57644;BME280;43474;46.510;6.686;2023-05-12T08:13:56;96048.50;;;18.74;76.67
57644;BME280;43474;46.510;6.686;2023-05-12T08:16:22;96051.28;;;19.24;75.10
57644;BME280;43474;46.510;6.686;2023-05-12T08:18:47;96043.41;;;19.27;73.42
57644;BME280;43474;46.510;6.686;2023-05-12T08:21:13;96060.94;;;18.04;85.88
57644;BME280;43474;46.510;6.686;2023-05-12T08:23:39;96067.53;;;17.37;84.87
57644;BME280;43474;46.510;6.686;2023-05-12T08:26:05;96060.25;;;16.70;89.06
57644;BME280;43474;46.510;6.686;2023-05-12T08:28:30;96051.06;;;16.82;94.34
57644;BME280;43474;46.510;6.686;2023-05-12T08:30:57;96061.91;;;16.66;92.90
57644;BME280;43474;46.510;6.686;2023-05-12T08:33:23;96065.16;;;16.63;89.98
57644;BME280;43474;46.510;6.686;2023-05-12T08:35:49;96042.19;;;16.86;90.13
57644;BME280;43474;46.510;6.686;2023-05-12T08:38:15;96047.34;;;17.44;92.87
57644;BME280;43474;46.510;6.686;2023-05-12T08:40:52;96044.09;;;17.47;86.00
57644;BME280;43474;46.510;6.686;2023-05-12T08:43:25;96055.25;;;17.36;89.78
57644;BME280;43474;46.510;6.686;2023-05-12T08:45:52;96042.44;;;16.61;93.11
57644;BME280;43474;46.510;6.686;2023-05-12T08:48:24;96050.69;;;16.35;90.69
57644;BME280;43474;46.510;6.686;2023-05-12T08:50:53;96048.94;;;15.96;98.95
57644;BME280;43474;46.510;6.686;2023-05-12T08:53:20;96051.50;;;16.07;92.99
57644;BME280;43474;46.510;6.686;2023-05-12T08:55:46;96047.75;;;16.08;93.22
57644;BME280;43474;46.510;6.686;2023-05-12T08:58:13;96031.50;;;16.86;97.62
57644;BME280;43474;46.510;6.686;2023-05-12T09:00:40;96044.88;;;17.29;90.93
57644;BME280;43474;46.510;6.686;2023-05-12T09:03:05;96049.06;;;17.16;87.37
57644;BME280;43474;46.510;6.686;2023-05-12T09:05:33;96035.53;;;17.64;86.09
57644;BME280;43474;46.510;6.686;2023-05-12T09:07:59;96043.72;;;16.92;80.98
57644;BME280;43474;46.510;6.686;2023-05-12T09:10:26;96046.19;;;16.60;94.83
57644;BME280;43474;46.510;6.686;2023-05-12T09:13:15;96038.56;;;18.28;85.48
57644;BME280;43474;46.510;6.686;2023-05-12T09:15:44;96050.00;;;18.94;79.88
57644;BME280;43474;46.510;6.686;2023-05-12T09:18:10;96054.28;;;18.34;78.08
57644;BME280;43474;46.510;6.686;2023-05-12T09:20:36;96042.22;;;17.67;85.28
57644;BME280;43474;46.510;6.686;2023-05-12T09:23:14;96048.72;;;16.75;88.89
57644;BME280;43474;46.510;6.686;2023-05-12T09:25:40;96052.44;;;16.50;87.81
57644;BME280;43474;46.510;6.686;2023-05-12T09:28:06;96038.44;;;16.00;89.35
57644;BME280;43474;46.510;6.686;2023-05-12T09:30:32;96051.94;;;15.85;87.66
57644;BME280;43474;46.510;6.686;2023-05-12T09:33:11;96055.94;;;15.87;97.35
57644;BME280;43474;46.510;6.686;2023-05-12T09:35:44;96042.22;;;16.57;91.17
57644;BME280;43474;46.510;6.686;2023-05-12T09:38:11;96037.50;;;16.97;86.21
57644;BME280;43474;46.510;6.686;2023-05-12T09:40:37;96030.13;;;16.60;87.07
57644;BME280;43474;46.510;6.686;2023-05-12T09:43:06;96033.59;;;17.51;85.40
57644;BME280;43474;46.510;6.686;2023-05-12T09:45:36;96032.50;;;17.90;85.86
57644;BME280;43474;46.510;6.686;2023-05-12T09:48:10;96027.16;;;19.82;81.05
57644;BME280;43474;46.510;6.686;2023-05-12T09:50:49;96031.03;;;20.44;66.59
57644;BME280;43474;46.510;6.686;2023-05-12T09:53:15;96028.44;;;20.52;77.41
57644;BME280;43474;46.510;6.686;2023-05-12T09:55:42;96022.91;;;19.45;68.57
57644;BME280;43474;46.510;6.686;2023-05-12T09:58:09;96028.28;;;19.45;77.25
57644;BME280;43474;46.510;6.686;2023-05-12T10:00:36;96031.72;;;18.82;70.46
57644;BME280;43474;46.510;6.686;2023-05-12T10:03:12;96019.44;;;18.62;78.46
57644;BME280;43474;46.510;6.686;2023-05-12T10:05:45;96025.41;;;19.28;74.26
57644;BME280;43474;46.510;6.686;2023-05-12T10:08:19;96023.47;;;18.92;76.94
57644;BME280;43474;46.510;6.686;2023-05-12T10:10:47;96016.91;;;19.48;81.66
57644;BME280;43474;46.510;6.686;2023-05-12T10:13:15;96009.81;;;19.02;71.27
57644;BME280;43474;46.510;6.686;2023-05-12T10:15:41;96006.88;;;18.90;79.59
57644;BME280;43474;46.510;6.686;2023-05-12T10:18:08;96016.25;;;19.29;79.43
57644;BME280;43474;46.510;6.686;2023-05-12T10:20:35;96007.44;;;19.51;77.65
57644;BME280;43474;46.510;6.686;2023-05-12T10:23:01;96007.22;;;19.25;68.71
57644;BME280;43474;46.510;6.686;2023-05-12T10:25:29;96007.75;;;18.85;76.21
57644;BME280;43474;46.510;6.686;2023-05-12T10:27:55;96007.19;;;18.28;74.22
57644;BME280;43474;46.510;6.686;2023-05-12T10:30:22;96009.66;;;18.25;75.21
57644;BME280;43474;46.510;6.686;2023-05-12T10:32:48;96011.81;;;18.09;80.62
57644;BME280;43474;46.510;6.686;2023-05-12T10:35:15;95998.03;;;17.83;76.34
57644;BME280;43474;46.510;6.686;2023-05-12T10:37:41;96004.03;;;17.75;77.48
57644;BME280;43474;46.510;6.686;2023-05-12T10:40:07;95995.34;;;17.83;79.27
57644;BME280;43474;46.510;6.686;2023-05-12T10:42:41;96000.50;;;17.61;80.50
57644;BME280;43474;46.510;6.686;2023-05-12T10:45:18;95997.66;;;17.71;83.38
57644;BME280;43474;46.510;6.686;2023-05-12T10:47:45;95991.28;;;17.67;76.16
57644;BME280;43474;46.510;6.686;2023-05-12T10:50:11;95987.81;;;17.66;83.82
57644;BME280;43474;46.510;6.686;2023-05-12T10:52:55;95981.94;;;18.16;83.01
57644;BME280;43474;46.510;6.686;2023-05-12T10:55:33;95966.75;;;18.39;77.54
57644;BME280;43474;46.510;6.686;2023-05-12T10:58:09;95975.91;;;19.06;73.13
57644;BME280;43474;46.510;6.686;2023-05-12T11:00:43;95970.44;;;18.84;70.48
57644;BME280;43474;46.510;6.686;2023-05-12T11:03:14;95970.34;;;18.62;76.67
57644;BME280;43474;46.510;6.686;2023-05-12T11:05:41;95979.81;;;19.00;78.95
57644;BME280;43474;46.510;6.686;2023-05-12T11:08:07;95983.16;;;19.20;73.97
57644;BME280;43474;46.510;6.686;2023-05-12T11:10:33;95963.56;;;19.05;75.06
57644;BME280;43474;46.510;6.686;2023-05-12T11:12:59;95967.06;;;18.78;80.34
57644;BME280;43474;46.510;6.686;2023-05-12T11:15:25;95970.13;;;18.99;80.09
57644;BME280;43474;46.510;6.686;2023-05-12T11:17:51;95961.88;;;19.46;73.50
57644;BME280;43474;46.510;6.686;2023-05-12T11:20:24;95993.13;;;19.78;67.54
57644;BME280;43474;46.510;6.686;2023-05-12T11:22:51;95978.47;;;19.61;70.97
57644;BME280;43474;46.510;6.686;2023-05-12T11:25:17;95965.25;;;19.74;69.93
57644;BME280;43474;46.510;6.686;2023-05-12T11:27:46;95967.00;;;19.70;70.86
57644;BME280;43474;46.510;6.686;2023-05-12T11:30:13;95969.84;;;20.27;71.19
57644;BME280;43474;46.510;6.686;2023-05-12T11:32:39;95964.72;;;20.79;71.40
57644;BME280;43474;46.510;6.686;2023-05-12T11:35:08;95966.59;;;20.78;69.67
57644;BME280;43474;46.510;6.686;2023-05-12T11:37:39;95965.88;;;21.12;72.38
57644;BME280;43474;46.510;6.686;2023-05-12T11:42:37;95955.13;;;21.21;71.94
57644;BME280;43474;46.510;6.686;2023-05-12T11:45:06;95954.69;;;20.31;65.14
57644;BME280;43474;46.510;6.686;2023-05-12T11:47:31;95951.00;;;19.51;72.32
57644;BME280;43474;46.510;6.686;2023-05-12T11:49:57;95971.56;;;19.33;66.36
57644;BME280;43474;46.510;6.686;2023-05-12T11:52:23;95955.41;;;19.10;70.81
57644;BME280;43474;46.510;6.686;2023-05-12T11:54:51;95956.91;;;18.89;68.31
57644;BME280;43474;46.510;6.686;2023-05-12T11:57:31;95951.22;;;19.04;66.58
57644;BME280;43474;46.510;6.686;2023-05-12T11:59:59;95946.91;;;18.81;67.77
57644;BME280;43474;46.510;6.686;2023-05-12T12:02:25;95945.53;;;18.70;72.43
57644;BME280;43474;46.510;6.686;2023-05-12T12:04:50;95930.28;;;18.51;69.00
57644;BME280;43474;46.510;6.686;2023-05-12T12:07:27;95943.50;;;18.20;70.70
57644;BME280;43474;46.510;6.686;2023-05-12T12:09:53;95934.47;;;18.16;70.35
57644;BME280;43474;46.510;6.686;2023-05-12T12:12:18;95938.78;;;17.98;69.74
57644;BME280;43474;46.510;6.686;2023-05-12T12:14:44;95932.81;;;17.88;79.50
57644;BME280;43474;46.510;6.686;2023-05-12T12:17:11;95947.94;;;17.97;75.65
57644;BME280;43474;46.510;6.686;2023-05-12T12:19:36;95952.13;;;18.17;71.99
57644;BME280;43474;46.510;6.686;2023-05-12T12:22:02;95940.03;;;18.33;72.76
57644;BME280;43474;46.510;6.686;2023-05-12T12:24:27;95941.69;;;18.29;67.57
57644;BME280;43474;46.510;6.686;2023-05-12T12:26:53;95929.91;;;18.30;72.68
57644;BME280;43474;46.510;6.686;2023-05-12T12:29:19;95936.44;;;18.24;75.40
57644;BME280;43474;46.510;6.686;2023-05-12T12:31:44;95939.13;;;18.11;73.00
57644;BME280;43474;46.510;6.686;2023-05-12T12:34:10;95943.06;;;17.99;74.39
57644;BME280;43474;46.510;6.686;2023-05-12T12:36:35;95932.50;;;17.89;80.96
57644;BME280;43474;46.510;6.686;2023-05-12T12:39:02;95943.75;;;17.91;71.32
57644;BME280;43474;46.510;6.686;2023-05-12T12:41:28;95934.66;;;18.61;72.20
57644;BME280;43474;46.510;6.686;2023-05-12T12:43:54;95934.97;;;19.23;68.50
57644;BME280;43474;46.510;6.686;2023-05-12T12:46:19;95942.03;;;19.78;65.62
57644;BME280;43474;46.510;6.686;2023-05-12T12:48:45;95939.06;;;20.10;69.17
57644;BME280;43474;46.510;6.686;2023-05-12T12:51:11;95942.16;;;20.66;69.70
57644;BME280;43474;46.510;6.686;2023-05-12T12:53:36;95937.66;;;20.13;67.69
57644;BME280;43474;46.510;6.686;2023-05-12T12:56:03;95934.03;;;20.18;72.08